createdAt,value
2017-10-02T00:01:03.390Z,9.97
2017-10-02T00:03:30.696Z,8.07
2017-10-02T00:05:57.964Z,11.90
2017-10-02T00:08:25.248Z,12.50
2017-10-02T00:10:52.551Z,11.53
2017-10-02T00:13:19.831Z,9.13
2017-10-02T00:15:47.154Z,11.30
2017-10-02T00:18:14.419Z,8.03
2017-10-02T00:20:41.693Z,6.77
2017-10-02T00:23:10.128Z,14.27
2017-10-02T00:25:37.390Z,13.43
2017-10-02T00:28:04.655Z,11.13
2017-10-02T00:30:31.948Z,12.80
2017-10-02T00:32:59.288Z,9.73
2017-10-02T00:35:26.554Z,12.47
2017-10-02T00:37:53.828Z,9.60
2017-10-02T00:40:21.138Z,12.40
2017-10-02T00:42:48.417Z,11.80
2017-10-02T00:45:15.721Z,10.63
2017-10-02T00:47:42.978Z,9.43
2017-10-02T00:50:10.271Z,14.40
2017-10-02T00:52:37.544Z,11.70
2017-10-02T00:55:04.832Z,18.83
2017-10-02T00:57:32.092Z,14.40
2017-10-02T00:59:59.431Z,11.47
2017-10-02T01:02:26.702Z,13.23
2017-10-02T01:04:53.975Z,13.93
2017-10-02T01:07:21.269Z,11.07
2017-10-02T01:09:48.538Z,11.90
2017-10-02T01:12:15.805Z,12.90
2017-10-02T01:14:43.094Z,11.47
2017-10-02T01:17:10.411Z,14.90
2017-10-02T01:19:37.708Z,18.93
2017-10-02T01:22:04.984Z,14.10
2017-10-02T01:24:32.271Z,11.43
2017-10-02T01:26:59.563Z,9.20
2017-10-02T01:29:26.835Z,11.57
2017-10-02T01:31:54.129Z,14.70
2017-10-02T01:34:21.438Z,10.63
2017-10-02T01:36:48.746Z,15.43
2017-10-02T01:39:16.021Z,15.43
2017-10-02T01:41:43.350Z,12.80
2017-10-02T01:44:10.620Z,17.73
2017-10-02T01:46:37.883Z,11.13
2017-10-02T01:49:05.183Z,16.10
2017-10-02T01:51:32.457Z,14.33
2017-10-02T01:53:59.713Z,11.93
2017-10-02T01:56:27.019Z,16.43
2017-10-02T01:58:54.310Z,11.83
2017-10-02T02:01:21.579Z,11.97
2017-10-02T02:03:48.867Z,13.70
2017-10-02T02:06:16.158Z,11.83
2017-10-02T02:08:43.429Z,15.47
2017-10-02T02:11:10.702Z,12.80
2017-10-02T02:13:38.001Z,11.17
2017-10-02T02:16:05.264Z,14.90
2017-10-02T02:18:32.550Z,14.57
2017-10-02T02:20:59.824Z,22.07
2017-10-02T02:23:27.145Z,16.40
2017-10-02T02:25:54.410Z,15.17
2017-10-02T02:28:21.673Z,15.00
2017-10-02T02:30:48.975Z,10.53
2017-10-02T02:33:16.255Z,10.23
2017-10-02T02:35:43.860Z,17.13
2017-10-02T02:38:11.157Z,12.33
2017-10-02T02:40:38.417Z,13.00
2017-10-02T02:43:05.701Z,13.00
2017-10-02T02:45:32.982Z,14.57
2017-10-02T02:48:00.259Z,12.60
2017-10-02T02:50:27.547Z,11.13
2017-10-02T02:52:54.848Z,14.93
2017-10-02T02:55:22.120Z,13.33
2017-10-02T02:57:49.416Z,10.67
2017-10-02T03:00:16.678Z,8.47
2017-10-02T03:02:43.968Z,14.67
2017-10-02T03:05:11.233Z,17.50
2017-10-02T03:07:38.522Z,10.70
2017-10-02T03:10:05.794Z,21.60
2017-10-02T03:12:33.087Z,16.70
2017-10-02T03:15:00.352Z,9.90
2017-10-02T03:17:27.625Z,13.83
2017-10-02T03:19:54.920Z,10.30
2017-10-02T03:22:22.184Z,8.73
2017-10-02T03:24:49.443Z,12.93
2017-10-02T03:27:16.754Z,11.23
2017-10-02T03:29:44.019Z,11.87
2017-10-02T03:32:11.288Z,12.80
2017-10-02T03:34:38.578Z,12.33
2017-10-02T03:37:05.879Z,11.67
2017-10-02T03:39:33.147Z,11.67
2017-10-02T03:42:00.417Z,12.23
2017-10-02T03:44:27.710Z,16.20
2017-10-02T03:46:54.983Z,12.87
2017-10-02T03:49:22.272Z,15.00
2017-10-02T03:51:49.566Z,14.73
2017-10-02T03:54:16.875Z,12.57
2017-10-02T03:56:44.140Z,15.93
2017-10-02T03:59:11.406Z,12.73
2017-10-02T04:01:38.701Z,9.90
2017-10-02T04:04:05.963Z,15.00
2017-10-02T04:06:33.227Z,10.20
2017-10-02T04:09:00.727Z,11.80
2017-10-02T04:11:27.996Z,11.90
2017-10-02T04:13:55.266Z,10.40
2017-10-02T04:16:22.563Z,13.07
2017-10-02T04:18:49.823Z,9.67
2017-10-02T04:21:17.104Z,13.60
2017-10-02T04:23:45.270Z,10.60
2017-10-02T04:26:12.562Z,11.90
2017-10-02T04:28:39.828Z,12.00
2017-10-02T04:31:07.151Z,12.30
2017-10-02T04:33:34.415Z,13.67
2017-10-02T04:36:01.679Z,9.93
2017-10-02T04:38:28.963Z,9.93
2017-10-02T04:40:56.231Z,11.37
2017-10-02T04:43:23.575Z,9.23
2017-10-02T04:45:50.831Z,8.67
2017-10-02T04:48:18.099Z,10.80
2017-10-02T04:50:45.386Z,8.80
2017-10-02T04:53:12.679Z,9.20
2017-10-02T04:55:39.985Z,13.73
2017-10-02T04:58:07.302Z,11.10
2017-10-02T05:00:34.780Z,15.80
2017-10-02T05:03:02.048Z,11.70
2017-10-02T05:05:29.322Z,14.40
2017-10-02T05:07:56.615Z,11.33
2017-10-02T05:10:23.870Z,9.07
2017-10-02T05:12:51.172Z,12.43
2017-10-02T05:15:18.440Z,8.93
2017-10-02T05:17:45.695Z,12.13
2017-10-02T05:20:12.983Z,9.43
2017-10-02T05:22:40.288Z,12.57
2017-10-02T05:25:07.558Z,12.83
2017-10-02T05:27:34.822Z,9.17
2017-10-02T05:30:02.116Z,11.53
2017-10-02T05:32:29.393Z,13.37
2017-10-02T05:34:56.682Z,11.70
2017-10-02T05:37:23.969Z,9.50
2017-10-02T05:39:51.228Z,9.20
2017-10-02T05:42:18.527Z,8.30
2017-10-02T05:44:45.789Z,9.53
2017-10-02T05:47:13.047Z,10.80
2017-10-02T05:49:40.347Z,11.43
2017-10-02T05:52:07.618Z,13.13
2017-10-02T05:54:34.918Z,8.20
2017-10-02T05:57:02.189Z,12.87
2017-10-02T05:59:29.460Z,12.77
2017-10-02T06:01:56.758Z,14.17
2017-10-02T06:04:24.022Z,10.70
2017-10-02T06:06:51.310Z,8.23
2017-10-02T06:09:18.614Z,16.03
2017-10-02T06:11:45.882Z,12.23
2017-10-02T06:14:13.147Z,12.33
2017-10-02T06:16:40.450Z,10.23
2017-10-02T06:19:07.714Z,8.67
2017-10-02T06:21:34.984Z,13.63
2017-10-02T06:24:02.275Z,10.00
2017-10-02T06:26:29.537Z,11.57
2017-10-02T06:28:56.814Z,7.23
2017-10-02T06:31:24.110Z,10.60
2017-10-02T06:33:51.391Z,9.70
2017-10-02T06:36:18.687Z,8.17
2017-10-02T06:38:45.944Z,7.33
2017-10-02T06:41:13.230Z,7.33
2017-10-02T06:43:40.490Z,7.97
2017-10-02T06:46:07.773Z,8.73
2017-10-02T06:48:35.035Z,10.13
2017-10-02T06:51:02.323Z,8.40
2017-10-02T06:53:29.578Z,8.70
2017-10-02T06:55:56.862Z,8.40
2017-10-02T06:58:24.366Z,7.50
2017-10-02T07:00:51.643Z,14.13
2017-10-02T07:03:18.903Z,9.70
2017-10-02T07:05:46.186Z,7.97
2017-10-02T07:08:13.446Z,12.63
2017-10-02T07:10:40.742Z,8.60
2017-10-02T07:13:08.016Z,8.30
2017-10-02T07:15:35.270Z,11.57
2017-10-02T07:18:02.557Z,10.07
2017-10-02T07:20:29.828Z,10.03
2017-10-02T07:22:57.105Z,11.10
2017-10-02T07:25:24.366Z,10.67
2017-10-02T07:27:51.653Z,8.40
2017-10-02T07:30:18.911Z,13.03
2017-10-02T07:32:46.186Z,10.43
2017-10-02T07:35:13.459Z,12.60
2017-10-02T07:37:40.734Z,9.97
2017-10-02T07:40:07.996Z,9.60
2017-10-02T07:42:35.254Z,10.90
2017-10-02T07:45:02.541Z,9.90
2017-10-02T07:47:29.807Z,17.93
2017-10-02T07:49:57.093Z,8.00
2017-10-02T07:52:24.364Z,11.90
2017-10-02T07:54:51.658Z,8.40
2017-10-02T07:57:18.918Z,10.20
2017-10-02T07:59:46.202Z,11.17
2017-10-02T08:02:13.473Z,11.20
2017-10-02T08:04:40.777Z,16.60
2017-10-02T08:07:08.026Z,12.47
2017-10-02T08:09:35.310Z,11.07
2017-10-02T08:12:02.583Z,14.67
2017-10-02T08:14:29.867Z,10.33
2017-10-02T08:16:57.143Z,12.70
2017-10-02T08:19:24.430Z,10.90
2017-10-02T08:21:51.699Z,14.67
2017-10-02T08:24:18.986Z,13.73
2017-10-02T08:26:46.254Z,10.90
2017-10-02T08:29:13.612Z,10.50
2017-10-02T08:31:40.855Z,14.43
2017-10-02T08:34:08.165Z,13.40
2017-10-02T08:36:35.427Z,9.03
2017-10-02T08:39:02.744Z,13.53
2017-10-02T08:41:30.020Z,10.80
2017-10-02T08:43:57.369Z,11.60
2017-10-02T08:46:24.625Z,13.20
2017-10-02T08:48:51.914Z,13.70
2017-10-02T08:51:19.229Z,22.60
2017-10-02T08:53:46.507Z,9.90
2017-10-02T08:56:13.808Z,10.80
2017-10-02T08:58:41.088Z,11.90
2017-10-02T09:01:08.389Z,10.43
2017-10-02T09:03:35.646Z,10.17
2017-10-02T09:06:02.931Z,10.70
2017-10-02T09:08:30.195Z,11.20
2017-10-02T09:10:57.475Z,9.63
2017-10-02T09:13:24.738Z,10.60
2017-10-02T09:15:52.022Z,9.67
2017-10-02T09:18:19.291Z,9.20
2017-10-02T09:20:46.574Z,8.60
2017-10-02T09:23:13.846Z,11.70
2017-10-02T09:25:41.250Z,10.57
2017-10-02T09:28:08.515Z,10.23
2017-10-02T09:30:35.810Z,10.47
2017-10-02T09:33:03.091Z,8.20
2017-10-02T09:35:30.366Z,8.63
2017-10-02T09:37:57.643Z,11.40
2017-10-02T09:40:24.927Z,9.70
2017-10-02T09:42:52.207Z,8.63
2017-10-02T09:45:19.495Z,8.60
2017-10-02T09:47:46.754Z,12.47
2017-10-02T09:52:47.802Z,9.20
2017-10-02T09:55:15.084Z,8.83
2017-10-02T09:57:42.391Z,8.83
2017-10-02T10:00:09.658Z,9.60
2017-10-02T10:02:36.935Z,8.90
2017-10-02T10:05:04.187Z,9.90
2017-10-02T10:07:31.483Z,11.03
2017-10-02T10:09:58.760Z,8.40
2017-10-02T10:12:26.076Z,7.77
2017-10-02T10:14:53.342Z,10.43
2017-10-02T10:17:20.629Z,12.33
2017-10-02T10:19:47.911Z,10.60
2017-10-02T10:22:15.201Z,8.03
2017-10-02T10:24:42.455Z,7.50
2017-10-02T10:27:09.736Z,7.63
2017-10-02T10:29:37.186Z,8.17
2017-10-02T10:32:04.462Z,6.20
2017-10-02T10:34:31.718Z,7.03
2017-10-02T10:36:58.999Z,7.63
2017-10-02T10:39:26.263Z,6.97
2017-10-02T10:41:53.544Z,7.20
2017-10-02T10:44:20.823Z,6.40
2017-10-02T10:46:48.078Z,6.30
2017-10-02T10:49:15.363Z,7.90
2017-10-02T10:51:42.622Z,9.40
2017-10-02T10:54:09.897Z,7.63
2017-10-02T10:56:37.164Z,9.07
2017-10-02T10:59:04.445Z,5.53
2017-10-02T11:01:31.733Z,14.20
2017-10-02T11:03:59.000Z,5.43
2017-10-02T11:06:26.362Z,6.83
2017-10-02T11:08:53.619Z,5.33
2017-10-02T11:11:20.895Z,4.73
2017-10-02T11:13:48.244Z,5.63
2017-10-02T11:16:15.498Z,8.00
2017-10-02T11:18:42.791Z,9.50
2017-10-02T11:21:10.051Z,5.13
2017-10-02T11:23:37.332Z,4.87
2017-10-02T11:26:04.595Z,11.03
2017-10-02T11:28:31.878Z,5.43
2017-10-02T11:30:59.149Z,6.00
2017-10-02T11:33:26.404Z,6.30
2017-10-02T11:35:53.927Z,5.40
2017-10-02T11:38:21.187Z,6.80
2017-10-02T11:40:48.473Z,9.80
2017-10-02T11:43:15.726Z,5.20
2017-10-02T11:45:43.007Z,6.00
2017-10-02T11:48:10.266Z,5.33
2017-10-02T11:50:37.559Z,5.70
2017-10-02T11:53:04.822Z,4.63
2017-10-02T11:55:32.101Z,5.00
2017-10-02T11:57:59.362Z,5.53
2017-10-02T12:00:26.641Z,5.63
2017-10-02T12:02:53.902Z,6.73
2017-10-02T12:05:21.181Z,6.70
2017-10-02T12:07:48.546Z,6.57
2017-10-02T12:10:15.810Z,19.53
2017-10-02T12:12:43.091Z,8.23
2017-10-02T12:15:10.377Z,6.90
2017-10-02T12:17:37.651Z,8.20
2017-10-02T12:20:04.924Z,12.40
2017-10-02T12:22:32.215Z,9.00
2017-10-02T12:24:59.484Z,7.70
2017-10-02T12:27:26.760Z,9.60
2017-10-02T12:29:54.022Z,7.50
2017-10-02T12:32:21.323Z,8.80
2017-10-02T12:34:48.583Z,8.60
2017-10-02T12:37:15.867Z,7.30
2017-10-02T12:39:43.118Z,7.70
2017-10-02T12:42:10.388Z,6.80
2017-10-02T12:44:37.666Z,9.30
2017-10-02T12:47:04.960Z,8.40
2017-10-02T12:49:32.219Z,6.73
2017-10-02T12:51:59.531Z,7.17
2017-10-02T12:54:26.807Z,7.77
2017-10-02T12:56:54.058Z,7.00
2017-10-02T12:59:21.352Z,6.87
2017-10-02T13:01:48.615Z,6.30
2017-10-02T13:04:15.902Z,7.23
2017-10-02T13:06:43.167Z,6.23
2017-10-02T13:09:10.442Z,5.60
2017-10-02T13:11:37.714Z,7.40
2017-10-02T13:14:05.126Z,5.70
2017-10-02T13:16:32.410Z,5.47
2017-10-02T13:18:59.701Z,19.33
2017-10-02T13:21:26.983Z,6.07
2017-10-02T13:23:54.246Z,6.00
2017-10-02T13:26:21.527Z,4.10
2017-10-02T13:28:48.787Z,4.30
2017-10-02T13:31:16.062Z,4.63
2017-10-02T13:33:43.331Z,5.47
2017-10-02T13:36:10.610Z,3.63
2017-10-02T13:38:37.874Z,3.40
2017-10-02T13:41:05.154Z,3.17
2017-10-02T13:43:32.411Z,3.70
2017-10-02T13:45:59.695Z,3.37
2017-10-02T13:48:26.958Z,3.83
2017-10-02T13:50:54.234Z,3.67
2017-10-02T13:53:21.502Z,7.13
2017-10-02T13:55:48.776Z,4.40
2017-10-02T13:58:16.032Z,5.57
2017-10-02T14:00:43.313Z,4.00
2017-10-02T14:03:10.576Z,4.20
2017-10-02T14:05:37.846Z,4.20
2017-10-02T14:08:05.275Z,4.70
2017-10-02T14:10:32.555Z,5.93
2017-10-02T14:12:59.824Z,6.40
2017-10-02T14:15:27.120Z,3.90
2017-10-02T14:17:54.397Z,5.20
2017-10-02T14:20:21.666Z,3.73
2017-10-02T14:22:48.929Z,3.60
2017-10-02T14:25:16.188Z,3.60
2017-10-02T14:27:43.467Z,7.93
2017-10-02T14:30:10.718Z,3.80
2017-10-02T14:32:38.004Z,4.30
2017-10-02T14:35:05.268Z,4.17
2017-10-02T14:37:32.548Z,6.50
2017-10-02T14:39:59.810Z,3.57
2017-10-02T14:42:27.087Z,6.70
2017-10-02T14:44:54.350Z,5.10
2017-10-02T14:47:21.626Z,3.83
2017-10-02T14:49:48.883Z,4.47
2017-10-02T14:52:16.170Z,7.53
2017-10-02T14:54:43.428Z,4.77
2017-10-02T14:57:10.727Z,8.53
2017-10-02T14:59:37.997Z,4.23
2017-10-02T15:02:05.270Z,4.90
2017-10-02T15:04:32.523Z,4.97
2017-10-02T15:06:59.814Z,5.33
2017-10-02T15:09:27.078Z,5.90
2017-10-02T15:11:54.603Z,6.97
2017-10-02T15:14:21.872Z,6.23
2017-10-02T15:16:49.150Z,10.90
2017-10-02T15:19:16.406Z,6.07
2017-10-02T15:21:43.667Z,5.80
2017-10-02T15:24:10.947Z,5.13
2017-10-02T15:26:38.275Z,6.50
2017-10-02T15:29:05.647Z,7.77
2017-10-02T15:31:32.910Z,5.23
2017-10-02T15:34:00.194Z,5.90
2017-10-02T15:36:27.454Z,9.23
2017-10-02T15:38:54.729Z,5.70
2017-10-02T15:41:21.990Z,6.23
2017-10-02T15:43:49.272Z,8.63
2017-10-02T15:46:16.549Z,7.13
2017-10-02T15:48:43.823Z,5.70
2017-10-02T15:51:11.084Z,9.93
2017-10-02T15:53:38.417Z,7.23
2017-10-02T15:56:05.672Z,9.33
2017-10-02T15:58:32.930Z,9.87
2017-10-02T16:01:00.199Z,10.63
2017-10-02T16:03:27.481Z,8.80
2017-10-02T16:05:54.741Z,8.40
2017-10-02T16:08:22.022Z,4.83
2017-10-02T16:10:49.282Z,7.53
2017-10-02T16:13:16.559Z,9.30
2017-10-02T16:15:43.820Z,6.93
2017-10-02T16:18:11.107Z,10.00
2017-10-02T16:20:38.387Z,4.70
2017-10-02T16:23:05.676Z,7.00
2017-10-02T16:25:32.936Z,5.87
2017-10-02T16:28:00.214Z,6.70
2017-10-02T16:30:27.492Z,9.20
2017-10-02T16:32:54.762Z,7.90
2017-10-02T16:35:22.019Z,6.30
2017-10-02T16:37:49.307Z,8.10
2017-10-02T16:40:16.562Z,6.63
2017-10-02T16:42:43.861Z,6.57
2017-10-02T16:45:11.127Z,10.00
2017-10-02T16:47:38.408Z,8.93
2017-10-02T16:50:06.496Z,10.93
2017-10-02T16:52:33.746Z,8.17
2017-10-02T16:55:01.229Z,5.43
2017-10-02T16:57:28.491Z,10.87
2017-10-02T16:59:55.779Z,11.87
2017-10-02T17:02:23.042Z,9.87
2017-10-02T17:04:50.334Z,11.10
2017-10-02T17:07:17.586Z,6.83
2017-10-02T17:09:44.885Z,8.40
2017-10-02T17:12:12.131Z,9.93
2017-10-02T17:14:39.415Z,9.43
2017-10-02T17:17:06.676Z,13.23
2017-10-02T17:19:33.966Z,10.80
2017-10-02T17:22:01.234Z,11.63
2017-10-02T17:24:28.522Z,13.47
2017-10-02T17:26:55.780Z,15.13
2017-10-02T17:29:23.064Z,15.57
2017-10-02T17:31:50.322Z,10.53
2017-10-02T17:34:17.611Z,9.37
2017-10-02T17:36:44.876Z,14.33
2017-10-02T17:39:12.139Z,13.13
2017-10-02T17:41:39.418Z,9.10
2017-10-02T17:44:06.689Z,17.23
2017-10-02T17:46:33.958Z,8.80
2017-10-02T17:49:01.223Z,17.40
2017-10-02T17:51:28.509Z,12.47
2017-10-02T17:53:55.773Z,15.80
2017-10-02T17:56:23.091Z,14.60
2017-10-02T17:58:50.391Z,14.07
2017-10-02T18:01:17.679Z,14.60
2017-10-02T18:03:44.959Z,17.93
2017-10-02T18:06:12.256Z,13.93
2017-10-02T18:08:39.525Z,13.40
2017-10-02T18:11:06.807Z,17.20
2017-10-02T18:13:34.078Z,16.10
2017-10-02T18:16:01.367Z,17.00
2017-10-02T18:18:28.631Z,12.77
2017-10-02T18:20:55.918Z,16.13
2017-10-02T18:23:23.178Z,11.10
2017-10-02T18:25:50.443Z,16.53
2017-10-02T18:28:17.733Z,16.63
2017-10-02T18:30:44.994Z,15.10
2017-10-02T18:33:12.283Z,18.70
2017-10-02T18:35:39.550Z,15.80
2017-10-02T18:38:06.830Z,15.17
2017-10-02T18:40:34.107Z,19.80
2017-10-02T18:43:01.395Z,15.20
2017-10-02T18:45:28.663Z,12.33
2017-10-02T18:47:55.971Z,10.97
2017-10-02T18:50:23.263Z,20.70
2017-10-02T18:52:50.532Z,12.53
2017-10-02T18:55:17.801Z,18.83
2017-10-02T18:57:45.079Z,18.73
2017-10-02T19:00:12.370Z,24.87
2017-10-02T19:02:39.686Z,22.23
2017-10-02T19:05:06.954Z,18.13
2017-10-02T19:07:35.071Z,19.80
2017-10-02T19:10:02.556Z,16.90
2017-10-02T19:12:29.799Z,18.63
2017-10-02T19:14:57.139Z,23.20
2017-10-02T19:17:24.427Z,17.03
2017-10-02T19:19:51.695Z,18.77
2017-10-02T19:22:18.961Z,18.70
2017-10-02T19:24:46.250Z,20.70
2017-10-02T19:27:13.527Z,26.07
2017-10-02T19:29:40.810Z,18.30
2017-10-02T19:32:08.094Z,16.07
2017-10-02T19:34:35.378Z,24.10
2017-10-02T19:37:02.659Z,19.33
2017-10-02T19:39:29.927Z,22.57
2017-10-02T19:41:57.246Z,22.47
2017-10-02T19:44:24.507Z,20.10
2017-10-02T19:46:51.792Z,20.03
2017-10-02T19:49:19.067Z,24.87
2017-10-02T19:51:46.348Z,21.77
2017-10-02T19:54:13.607Z,20.00
2017-10-02T19:56:40.903Z,23.20
2017-10-02T19:59:08.179Z,18.37
2017-10-02T20:01:35.462Z,23.63
2017-10-02T20:04:02.736Z,17.93
2017-10-02T20:06:30.023Z,28.67
2017-10-02T20:08:57.287Z,31.57
2017-10-02T20:11:24.559Z,16.13
2017-10-02T20:13:51.842Z,19.53
2017-10-02T20:16:19.128Z,17.20
2017-10-02T20:18:46.402Z,16.10
2017-10-02T20:21:13.695Z,17.77
2017-10-02T20:23:40.980Z,18.10
2017-10-02T20:26:08.257Z,22.30
2017-10-02T20:28:35.552Z,21.77
2017-10-02T20:31:02.836Z,20.10
2017-10-02T20:33:30.131Z,20.37
2017-10-02T20:35:57.407Z,20.30
2017-10-02T20:38:24.710Z,29.17
2017-10-02T20:40:51.986Z,22.87
2017-10-02T20:43:19.279Z,17.47
2017-10-02T20:45:46.554Z,15.27
2017-10-02T20:48:13.820Z,23.10
2017-10-02T20:50:41.146Z,16.77
2017-10-02T20:53:08.412Z,24.50
2017-10-02T20:55:35.703Z,11.17
2017-10-02T20:58:02.982Z,25.20
2017-10-02T21:00:30.266Z,13.90
2017-10-02T21:02:57.542Z,29.03
2017-10-02T21:05:24.839Z,20.80
2017-10-02T21:07:52.126Z,22.30
2017-10-02T21:10:19.390Z,23.93
2017-10-02T21:12:46.661Z,18.60
2017-10-02T21:15:13.960Z,20.53
2017-10-02T21:17:41.222Z,22.57
2017-10-02T21:20:08.514Z,16.40
2017-10-02T21:22:35.783Z,20.27
2017-10-02T21:25:03.070Z,23.53
2017-10-02T21:27:30.339Z,19.97
2017-10-02T21:29:57.608Z,18.60
2017-10-02T21:32:24.896Z,23.00
2017-10-02T21:34:52.162Z,17.03
2017-10-02T21:37:19.454Z,21.10
2017-10-02T21:39:46.719Z,14.60
2017-10-02T21:42:14.003Z,19.93
2017-10-02T21:44:41.278Z,19.50
2017-10-02T21:47:08.559Z,18.77
2017-10-02T21:49:35.828Z,23.20
2017-10-02T21:52:03.110Z,19.20
2017-10-02T21:54:30.375Z,21.97
2017-10-02T21:56:57.667Z,18.97
2017-10-02T21:59:24.929Z,18.43
2017-10-02T22:01:52.216Z,18.57
2017-10-02T22:04:19.486Z,20.03
2017-10-02T22:06:46.750Z,17.63
2017-10-02T22:09:14.041Z,19.20
2017-10-02T22:11:41.310Z,12.07
2017-10-02T22:14:08.591Z,21.53
2017-10-02T22:16:35.859Z,16.33
2017-10-02T22:19:03.147Z,15.37
2017-10-02T22:21:30.414Z,18.13
2017-10-02T22:23:57.698Z,14.50
2017-10-02T22:26:24.971Z,12.70
2017-10-02T22:28:52.259Z,10.80
2017-10-02T22:31:19.524Z,12.53
2017-10-02T22:33:46.811Z,13.57
2017-10-02T22:36:14.074Z,13.47
2017-10-02T22:38:41.351Z,12.10
2017-10-02T22:41:08.627Z,11.23
2017-10-02T22:43:35.892Z,11.20
2017-10-02T22:46:03.175Z,11.00
2017-10-02T22:48:30.442Z,12.03
2017-10-02T22:50:57.735Z,11.60
2017-10-02T22:53:25.003Z,8.80
2017-10-02T22:55:52.282Z,11.33
2017-10-02T22:58:19.547Z,14.87
2017-10-02T23:00:46.830Z,12.83
2017-10-02T23:03:14.099Z,16.57
2017-10-02T23:05:41.392Z,12.97
2017-10-02T23:08:08.669Z,14.50
2017-10-02T23:10:35.952Z,13.97
2017-10-02T23:13:03.217Z,13.97
2017-10-02T23:15:30.498Z,15.30
2017-10-02T23:17:57.766Z,19.97
2017-10-02T23:20:25.072Z,15.30
2017-10-02T23:22:52.339Z,17.37
2017-10-02T23:25:19.609Z,15.80
2017-10-02T23:27:46.896Z,13.83
2017-10-02T23:30:14.158Z,14.93
2017-10-02T23:32:41.448Z,13.47
2017-10-02T23:35:08.705Z,13.00
2017-10-02T23:37:35.986Z,11.00
2017-10-02T23:40:03.253Z,14.73
2017-10-02T23:42:30.540Z,10.50
2017-10-02T23:44:57.806Z,11.83
2017-10-02T23:49:58.797Z,9.73
2017-10-02T23:52:26.075Z,11.47
2017-10-02T23:54:53.350Z,9.93
2017-10-02T23:57:20.631Z,9.50
2017-10-02T23:59:47.889Z,6.03
